Time,TemperatureF,DewpointF,PressureIn,WindDirection,WindDirectionDegrees,WindSpeedMPH,WindSpeedGustMPH,Humidity,HourlyPrecipIn,Conditions,Clouds,dailyrainin,SolarRadiationWatts/m^2,SoftwareType,DateUTC
2013-07-28 00:05:00,55.9,55.1,29.92,WSW,254,10.0,12.0,97,0.00,,,0.00,0,Wunderground v.1.15,2013-07-28 07:05:00,
2013-07-28 00:14:00,55.9,55.1,29.92,West,264,12.0,17.0,97,0.00,,,0.00,0,Wunderground v.1.15,2013-07-28 07:14:00,
2013-07-28 00:24:00,55.9,55.1,29.91,West,266,11.0,12.0,97,0.00,,,0.00,0,Wunderground v.1.15,2013-07-28 07:24:00,
2013-07-28 00:29:00,55.9,55.1,29.91,SW,225,11.0,14.0,97,0.00,,,0.00,0,Wunderground v.1.15,2013-07-28 07:29:00,
2013-07-28 00:34:00,55.8,55.0,29.91,West,265,12.0,14.0,97,0.00,,,0.00,0,Wunderground v.1.15,2013-07-28 07:34:00,
2013-07-28 00:44:00,55.7,54.9,29.91,West,262,13.0,16.0,97,0.00,,,0.00,0,Wunderground v.1.15,2013-07-28 07:44:00,
2013-07-28 00:49:00,55.8,55.0,29.91,WSW,246,13.0,13.0,97,0.00,,,0.00,0,Wunderground v.1.15,2013-07-28 07:49:00,
2013-07-28 00:59:00,55.7,54.9,29.91,WSW,249,13.0,14.0,97,0.00,,,0.00,0,Wunderground v.1.15,2013-07-28 07:59:00,
2013-07-28 01:04:00,55.7,54.9,29.91,WSW,255,12.0,14.0,97,0.00,,,0.00,0,Wunderground v.1.15,2013-07-28 08:04:00,
2013-07-28 01:14:00,55.6,54.8,29.91,WSW,257,12.0,15.0,97,0.00,,,0.00,0,Wunderground v.1.15,2013-07-28 08:14:00,
2013-07-28 01:19:00,55.5,54.7,29.91,West,272,12.0,17.0,97,0.00,,,0.00,0,Wunderground v.1.15,2013-07-28 08:19:00,
2013-07-28 01:29:00,55.6,54.8,29.91,West,265,13.0,13.0,97,0.00,,,0.00,0,Wunderground v.1.15,2013-07-28 08:29:00,
2013-07-28 01:34:00,55.5,54.7,29.91,WSW,239,13.0,13.0,97,0.00,,,0.00,0,Wunderground v.1.15,2013-07-28 08:34:00,
2013-07-28 01:44:00,55.5,54.7,29.91,WSW,253,13.0,13.0,97,0.00,,,0.00,0,Wunderground v.1.15,2013-07-28 08:44:00,
2013-07-28 01:49:00,55.7,54.9,29.91,WSW,254,12.0,12.0,97,0.00,,,0.00,0,Wunderground v.1.15,2013-07-28 08:49:00,
2013-07-28 01:54:00,55.5,54.7,29.91,WSW,249,11.0,12.0,97,0.00,,,0.00,0,Wunderground v.1.15,2013-07-28 08:54:00,
2013-07-28 02:04:00,55.6,54.8,29.91,West,268,11.0,11.0,97,0.00,,,0.00,0,Wunderground v.1.15,2013-07-28 09:04:00,
2013-07-28 02:09:00,55.5,54.7,29.91,WSW,255,11.0,15.0,97,0.00,,,0.00,0,Wunderground v.1.15,2013-07-28 09:09:00,
2013-07-28 02:19:00,55.5,54.7,29.90,WSW,253,12.0,12.0,97,0.00,,,0.00,0,Wunderground v.1.15,2013-07-28 09:19:00,
2013-07-28 02:24:00,55.7,54.9,29.90,WSW,254,10.0,13.0,97,0.00,,,0.00,0,Wunderground v.1.15,2013-07-28 09:24:00,
2013-07-28 02:34:00,55.5,54.7,29.90,WSW,255,10.0,10.0,97,0.00,,,0.00,0,Wunderground v.1.15,2013-07-28 09:34:00,
2013-07-28 02:39:00,55.6,54.8,29.90,WSW,251,11.0,12.0,97,0.00,,,0.00,0,Wunderground v.1.15,2013-07-28 09:39:00,
2013-07-28 02:44:00,55.3,54.5,29.90,West,270,11.0,16.0,97,0.00,,,0.00,0,Wunderground v.1.15,2013-07-28 09:44:00,
2013-07-28 02:54:00,55.4,54.6,29.89,SW,229,12.0,13.0,97,0.00,,,0.00,0,Wunderground v.1.15,2013-07-28 09:54:00,
2013-07-28 02:59:00,55.2,54.4,29.89,West,263,13.0,13.0,97,0.00,,,0.00,0,Wunderground v.1.15,2013-07-28 09:59:00,
2013-07-28 03:09:00,55.2,54.4,29.89,WSW,255,13.0,13.0,97,0.00,,,0.00,0,Wunderground v.1.15,2013-07-28 10:09:00,
2013-07-28 03:14:00,55.2,54.4,29.89,WSW,257,12.0,13.0,97,0.00,,,0.00,0,Wunderground v.1.15,2013-07-28 10:14:00,
2013-07-28 03:24:00,55.3,54.7,29.89,WSW,253,11.0,18.0,98,0.00,,,0.00,0,Wunderground v.1.15,2013-07-28 10:24:00,
2013-07-28 03:29:00,55.2,54.6,29.89,WSW,249,12.0,12.0,98,0.00,,,0.00,0,Wunderground v.1.15,2013-07-28 10:29:00,
2013-07-28 03:39:00,55.2,54.6,29.89,SW,218,11.0,11.0,98,0.00,,,0.00,0,Wunderground v.1.15,2013-07-28 10:39:00,
2013-07-28 03:44:00,55.1,54.3,29.89,WSW,242,11.0,13.0,97,0.00,,,0.00,0,Wunderground v.1.15,2013-07-28 10:44:00,
2013-07-28 03:49:00,55.0,54.2,29.89,SW,226,12.0,14.0,97,0.00,,,0.00,0,Wunderground v.1.15,2013-07-28 10:49:00,
2013-07-28 03:59:00,54.9,54.1,29.89,WSW,251,12.0,15.0,97,0.00,,,0.00,0,Wunderground v.1.15,2013-07-28 10:59:00,
2013-07-28 04:04:00,54.9,54.1,29.89,West,259,12.0,15.0,97,0.00,,,0.00,0,Wunderground v.1.15,2013-07-28 11:04:00,
2013-07-28 04:14:00,54.8,54.0,29.88,WSW,251,13.0,14.0,97,0.00,,,0.00,0,Wunderground v.1.15,2013-07-28 11:14:00,
2013-07-28 04:19:00,54.9,54.3,29.88,West,268,13.0,14.0,98,0.00,,,0.00,0,Wunderground v.1.15,2013-07-28 11:19:00,
2013-07-28 04:29:00,54.8,54.2,29.89,WSW,245,14.0,14.0,98,0.00,,,0.00,0,Wunderground v.1.15,2013-07-28 11:29:00,
2013-07-28 04:34:00,54.8,54.2,29.88,West,264,13.0,14.0,98,0.00,,,0.00,0,Wunderground v.1.15,2013-07-28 11:34:00,
2013-07-28 04:44:00,54.9,54.3,29.88,SSW,213,10.0,11.0,98,0.00,,,0.00,0,Wunderground v.1.15,2013-07-28 11:44:00,
2013-07-28 04:49:00,55.0,54.4,29.88,SW,218,9.0,9.0,98,0.00,,,0.00,0,Wunderground v.1.15,2013-07-28 11:49:00,
2013-07-28 04:59:00,55.2,54.6,29.88,WSW,249,8.0,8.0,98,0.00,,,0.00,0,Wunderground v.1.15,2013-07-28 11:59:00,
2013-07-28 05:04:00,55.1,54.5,29.88,WSW,255,9.0,12.0,98,0.00,,,0.00,0,Wunderground v.1.15,2013-07-28 12:04:00,
2013-07-28 05:14:00,54.9,54.1,29.88,WSW,252,10.0,10.0,97,0.00,,,0.00,0,Wunderground v.1.15,2013-07-28 12:14:00,
2013-07-28 05:19:00,54.8,54.0,29.88,SW,231,11.0,11.0,97,0.00,,,0.00,0,Wunderground v.1.15,2013-07-28 12:19:00,
2013-07-28 05:24:00,55.0,54.2,29.88,WSW,249,11.0,11.0,97,0.00,,,0.00,0,Wunderground v.1.15,2013-07-28 12:24:00,
2013-07-28 05:34:00,55.0,54.2,29.89,WSW,251,11.0,16.0,97,0.00,,,0.00,0,Wunderground v.1.15,2013-07-28 12:34:00,
2013-07-28 05:39:00,55.0,54.2,29.88,WSW,239,12.0,12.0,97,0.00,,,0.00,0,Wunderground v.1.15,2013-07-28 12:39:00,
2013-07-28 05:44:00,55.0,54.2,29.89,SW,225,11.0,12.0,97,0.00,,,0.00,0,Wunderground v.1.15,2013-07-28 12:44:00,
2013-07-28 05:54:00,55.1,54.3,29.88,SW,218,9.0,11.0,97,0.00,,,0.00,0,Wunderground v.1.15,2013-07-28 12:54:00,
2013-07-28 06:04:00,55.4,54.8,29.89,West,265,8.0,9.0,98,0.00,,,0.00,0,Wunderground v.1.15,2013-07-28 13:04:00,
2013-07-28 06:09:00,55.0,54.2,29.89,SSW,208,11.0,12.0,97,0.00,,,0.00,0,Wunderground v.1.15,2013-07-28 13:09:00,
2013-07-28 06:19:00,55.0,54.2,29.89,West,266,12.0,13.0,97,0.00,,,0.00,0,Wunderground v.1.15,2013-07-28 13:19:00,
2013-07-28 06:24:00,55.1,54.3,29.89,SW,234,12.0,13.0,97,0.00,,,0.00,0,Wunderground v.1.15,2013-07-28 13:24:00,
2013-07-28 06:34:00,55.4,54.8,29.89,West,262,11.0,14.0,98,0.00,,,0.00,0,Wunderground v.1.15,2013-07-28 13:34:00,
2013-07-28 06:39:00,55.3,54.5,29.90,West,277,12.0,14.0,97,0.00,,,0.00,5,Wunderground v.1.15,2013-07-28 13:39:00,
2013-07-28 06:49:00,55.3,54.5,29.90,WSW,255,10.0,10.0,97,0.00,,,0.00,11,Wunderground v.1.15,2013-07-28 13:49:00,
2013-07-28 06:54:00,55.4,54.6,29.90,WSW,255,9.0,10.0,97,0.00,,,0.00,11,Wunderground v.1.15,2013-07-28 13:54:00,
2013-07-28 06:59:00,55.3,54.5,29.90,SW,222,8.0,11.0,97,0.00,,,0.00,14,Wunderground v.1.15,2013-07-28 13:59:00,
2013-07-28 07:09:00,55.2,54.4,29.90,West,264,10.0,15.0,97,0.00,,,0.00,18,Wunderground v.1.15,2013-07-28 14:09:00,
2013-07-28 07:14:00,55.5,54.7,29.90,SW,222,9.0,15.0,97,0.00,,,0.00,21,Wunderground v.1.15,2013-07-28 14:14:00,
2013-07-28 07:24:00,55.3,54.5,29.90,WSW,247,12.0,15.0,97,0.00,,,0.00,32,Wunderground v.1.15,2013-07-28 14:24:00,
2013-07-28 07:29:00,55.6,54.8,29.90,WSW,241,10.0,10.0,97,0.00,,,0.00,32,Wunderground v.1.15,2013-07-28 14:29:00,
2013-07-28 07:39:00,55.6,54.8,29.91,WSW,248,11.0,11.0,97,0.00,,,0.00,40,Wunderground v.1.15,2013-07-28 14:39:00,
2013-07-28 07:44:00,55.4,54.6,29.91,WSW,249,12.0,13.0,97,0.00,,,0.00,47,Wunderground v.1.15,2013-07-28 14:44:00,
2013-07-28 07:54:00,55.4,54.6,29.91,West,263,13.0,13.0,97,0.00,,,0.00,49,Wunderground v.1.15,2013-07-28 14:54:00,
2013-07-28 07:59:00,55.6,54.8,29.91,SW,226,13.0,13.0,97,0.00,,,0.00,46,Wunderground v.1.15,2013-07-28 14:59:00,
2013-07-28 08:09:00,55.6,54.8,29.91,SSW,200,12.0,12.0,97,0.00,,,0.00,62,Wunderground v.1.15,2013-07-28 15:09:00,
2013-07-28 08:14:00,55.8,55.0,29.91,WSW,249,11.0,13.0,97,0.00,,,0.00,51,Wunderground v.1.15,2013-07-28 15:14:00,
2013-07-28 08:19:00,55.5,54.7,29.91,WSW,248,12.0,12.0,97,0.00,,,0.00,74,Wunderground v.1.15,2013-07-28 15:19:00,
2013-07-28 08:29:00,55.5,54.7,29.91,WSW,255,12.0,12.0,97,0.00,,,0.00,63,Wunderground v.1.15,2013-07-28 15:29:00,
2013-07-28 08:34:00,55.6,54.8,29.91,SW,225,13.0,13.0,97,0.00,,,0.00,97,Wunderground v.1.15,2013-07-28 15:34:00,
2013-07-28 08:44:00,55.7,54.9,29.91,WSW,257,12.0,15.0,97,0.00,,,0.00,95,Wunderground v.1.15,2013-07-28 15:44:00,
2013-07-28 08:49:00,55.6,54.8,29.91,WSW,251,13.0,13.0,97,0.00,,,0.00,107,Wunderground v.1.15,2013-07-28 15:49:00,
2013-07-28 08:59:00,55.8,55.0,29.91,WSW,239,14.0,14.0,97,0.00,,,0.00,130,Wunderground v.1.15,2013-07-28 15:59:00,
2013-07-28 09:04:00,55.8,55.0,29.91,West,260,14.0,15.0,97,0.00,,,0.00,141,Wunderground v.1.15,2013-07-28 16:04:00,
2013-07-28 09:14:00,55.9,55.1,29.91,West,259,14.0,15.0,97,0.00,,,0.00,167,Wunderground v.1.15,2013-07-28 16:14:00,
2013-07-28 09:19:00,56.0,54.9,29.91,SW,235,15.0,15.0,96,0.00,,,0.00,141,Wunderground v.1.15,2013-07-28 16:19:00,
2013-07-28 09:29:00,56.0,54.9,29.91,WSW,254,14.0,18.0,96,0.00,,,0.00,163,Wunderground v.1.15,2013-07-28 16:29:00,
2013-07-28 09:34:00,55.8,54.7,29.91,West,262,16.0,18.0,96,0.00,,,0.00,174,Wunderground v.1.15,2013-07-28 16:34:00,
2013-07-28 09:39:00,55.9,54.8,29.91,West,275,16.0,17.0,96,0.00,,,0.00,185,Wunderground v.1.15,2013-07-28 16:39:00,
2013-07-28 09:49:00,56.1,55.0,29.91,West,273,15.0,15.0,96,0.00,,,0.00,178,Wunderground v.1.15,2013-07-28 16:49:00,
2013-07-28 09:59:00,56.0,54.9,29.91,West,262,13.0,17.0,96,0.00,,,0.00,197,Wunderground v.1.15,2013-07-28 16:59:00,
2013-07-28 10:04:00,56.0,54.9,29.92,West,268,13.0,17.0,96,0.00,,,0.00,213,Wunderground v.1.15,2013-07-28 17:04:00,
2013-07-28 10:09:00,56.1,55.0,29.92,WSW,257,13.0,14.0,96,0.00,,,0.00,223,Wunderground v.1.15,2013-07-28 17:09:00,
2013-07-28 10:19:00,56.0,54.9,29.92,WSW,253,13.0,13.0,96,0.00,,,0.00,236,Wunderground v.1.15,2013-07-28 17:19:00,
2013-07-28 10:24:00,56.0,54.6,29.92,WSW,253,13.0,13.0,95,0.00,,,0.00,236,Wunderground v.1.15,2013-07-28 17:24:00,
2013-07-28 10:34:00,55.9,54.5,29.92,WSW,258,14.0,15.0,95,0.00,,,0.00,301,Wunderground v.1.15,2013-07-28 17:34:00,
2013-07-28 10:39:00,55.9,54.5,29.92,SW,236,14.0,14.0,95,0.00,,,0.00,334,Wunderground v.1.15,2013-07-28 17:39:00,
2013-07-28 10:44:00,56.0,54.6,29.92,West,261,14.0,18.0,95,0.00,,,0.00,329,Wunderground v.1.15,2013-07-28 17:44:00,
2013-07-28 10:54:00,55.9,54.5,29.92,WSW,256,14.0,16.0,95,0.00,,,0.00,357,Wunderground v.1.15,2013-07-28 17:54:00,
2013-07-28 10:59:00,55.9,54.2,29.92,West,263,14.0,15.0,94,0.00,,,0.00,429,Wunderground v.1.15,2013-07-28 17:59:00,
2013-07-28 11:09:00,56.2,54.5,29.92,WSW,239,14.0,14.0,94,0.00,,,0.00,396,Wunderground v.1.15,2013-07-28 18:09:00,
2013-07-28 11:14:00,56.2,54.5,29.92,West,260,14.0,15.0,94,0.00,,,0.00,371,Wunderground v.1.15,2013-07-28 18:14:00,
2013-07-28 11:24:00,56.2,54.5,29.92,West,266,14.0,16.0,94,0.00,,,0.00,492,Wunderground v.1.15,2013-07-28 18:24:00,
2013-07-28 11:29:00,56.4,54.7,29.92,WSW,248,15.0,15.0,94,0.00,,,0.00,459,Wunderground v.1.15,2013-07-28 18:29:00,
2013-07-28 11:34:00,56.7,55.0,29.92,WSW,254,13.0,15.0,94,0.00,,,0.00,448,Wunderground v.1.15,2013-07-28 18:34:00,
2013-07-28 11:39:00,56.6,54.6,29.92,West,259,14.0,18.0,93,0.00,,,0.00,454,Wunderground v.1.15,2013-07-28 18:39:00,
2013-07-28 11:49:00,56.7,54.7,29.92,SSW,213,14.0,16.0,93,0.00,,,0.00,621,Wunderground v.1.15,2013-07-28 18:49:00,
2013-07-28 11:54:00,56.8,54.8,29.92,SW,230,14.0,16.0,93,0.00,,,0.00,599,Wunderground v.1.15,2013-07-28 18:54:00,
2013-07-28 11:59:00,56.9,54.6,29.92,WSW,247,13.0,13.0,92,0.00,,,0.00,610,Wunderground v.1.15,2013-07-28 18:59:00,
2013-07-28 12:09:00,56.8,54.5,29.92,WSW,240,13.0,13.0,92,0.00,,,0.00,515,Wunderground v.1.15,2013-07-28 19:09:00,
2013-07-28 12:14:00,56.9,54.6,29.92,West,270,15.0,15.0,92,0.00,,,0.00,608,Wunderground v.1.15,2013-07-28 19:14:00,
2013-07-28 12:24:00,57.1,54.8,29.92,WSW,252,14.0,18.0,92,0.00,,,0.00,536,Wunderground v.1.15,2013-07-28 19:24:00,
2013-07-28 12:29:00,57.2,54.9,29.92,SW,231,13.0,13.0,92,0.00,,,0.00,534,Wunderground v.1.15,2013-07-28 19:29:00,
2013-07-28 12:39:00,57.6,55.0,29.92,SW,230,12.0,12.0,91,0.00,,,0.00,694,Wunderground v.1.15,2013-07-28 19:39:00,
2013-07-28 12:49:00,57.9,55.3,29.92,SW,235,12.0,12.0,91,0.00,,,0.00,626,Wunderground v.1.15,2013-07-28 19:49:00,
2013-07-28 12:54:00,58.1,55.2,29.92,WSW,257,12.0,12.0,90,0.00,,,0.00,1121,Wunderground v.1.15,2013-07-28 19:54:00,
2013-07-28 12:59:00,58.1,55.2,29.92,West,279,13.0,19.0,90,0.00,,,0.00,800,Wunderground v.1.15,2013-07-28 19:59:00,
2013-07-28 13:09:00,58.2,55.3,29.92,WSW,249,13.0,13.0,90,0.00,,,0.00,881,Wunderground v.1.15,2013-07-28 20:09:00,
2013-07-28 13:14:00,58.6,55.7,29.92,SW,228,12.0,13.0,90,0.00,,,0.00,1034,Wunderground v.1.15,2013-07-28 20:14:00,
2013-07-28 13:24:00,59.1,55.9,29.91,WSW,240,12.0,20.0,89,0.00,,,0.00,1053,Wunderground v.1.15,2013-07-28 20:24:00,
2013-07-28 13:29:00,59.1,55.2,29.91,WSW,240,11.0,12.0,87,0.00,,,0.00,904,Wunderground v.1.15,2013-07-28 20:29:00,
2013-07-28 13:34:00,59.3,55.4,29.91,WSW,245,11.0,14.0,87,0.00,,,0.00,960,Wunderground v.1.15,2013-07-28 20:34:00,
2013-07-28 13:44:00,59.6,55.4,29.91,SSW,213,12.0,12.0,86,0.00,,,0.00,949,Wunderground v.1.15,2013-07-28 20:44:00,
2013-07-28 13:54:00,59.5,55.6,29.91,SW,234,13.0,13.0,87,0.00,,,0.00,942,Wunderground v.1.15,2013-07-28 20:54:00,
2013-07-28 13:59:00,59.5,55.6,29.91,SW,218,13.0,17.0,87,0.00,,,0.00,944,Wunderground v.1.15,2013-07-28 20:59:00,
2013-07-28 14:04:00,59.6,55.7,29.90,SSW,213,12.0,17.0,87,0.00,,,0.00,940,Wunderground v.1.15,2013-07-28 21:04:00,
2013-07-28 14:14:00,59.9,55.7,29.90,WSW,257,11.0,12.0,86,0.00,,,0.00,937,Wunderground v.1.15,2013-07-28 21:14:00,
2013-07-28 14:19:00,59.6,55.4,29.90,West,264,12.0,15.0,86,0.00,,,0.00,933,Wunderground v.1.15,2013-07-28 21:19:00,
2013-07-28 14:29:00,59.2,55.3,29.89,SSW,213,13.0,13.0,87,0.00,,,0.00,926,Wunderground v.1.15,2013-07-28 21:29:00,
2013-07-28 14:34:00,59.4,55.5,29.89,WSW,252,12.0,13.0,87,0.00,,,0.00,923,Wunderground v.1.15,2013-07-28 21:34:00,
2013-07-28 14:44:00,58.6,55.1,29.89,WSW,252,15.0,20.0,88,0.00,,,0.00,918,Wunderground v.1.15,2013-07-28 21:44:00,
2013-07-28 14:49:00,58.5,55.3,29.89,SW,235,16.0,16.0,89,0.00,,,0.00,940,Wunderground v.1.15,2013-07-28 21:49:00,
2013-07-28 14:54:00,58.5,55.3,29.89,SSW,213,16.0,16.0,89,0.00,,,0.00,861,Wunderground v.1.15,2013-07-28 21:54:00,
2013-07-28 15:04:00,58.3,55.1,29.88,WSW,238,17.0,17.0,89,0.00,,,0.00,911,Wunderground v.1.15,2013-07-28 22:04:00,
2013-07-28 15:09:00,58.4,55.2,29.88,SW,226,16.0,22.0,89,0.00,,,0.00,882,Wunderground v.1.15,2013-07-28 22:09:00,
2013-07-28 15:19:00,58.5,55.0,29.89,SW,231,17.0,17.0,88,0.00,,,0.00,872,Wunderground v.1.15,2013-07-28 22:19:00,
2013-07-28 15:24:00,58.4,54.9,29.89,WSW,243,16.0,18.0,88,0.00,,,0.00,856,Wunderground v.1.15,2013-07-28 22:24:00,
2013-07-28 15:34:00,58.4,55.2,29.88,WSW,249,17.0,22.0,89,0.00,,,0.00,840,Wunderground v.1.15,2013-07-28 22:34:00,
2013-07-28 15:39:00,58.6,55.4,29.88,WSW,239,16.0,16.0,89,0.00,,,0.00,831,Wunderground v.1.15,2013-07-28 22:39:00,
2013-07-28 15:49:00,59.4,55.8,29.87,SW,236,12.0,12.0,88,0.00,,,0.00,803,Wunderground v.1.15,2013-07-28 22:49:00,
2013-07-28 15:54:00,59.6,56.0,29.87,SSW,208,12.0,13.0,88,0.00,,,0.00,817,Wunderground v.1.15,2013-07-28 22:54:00,
2013-07-28 15:59:00,59.4,55.5,29.87,WSW,253,14.0,14.0,87,0.00,,,0.00,800,Wunderground v.1.15,2013-07-28 22:59:00,
2013-07-28 16:09:00,59.0,55.4,29.87,WSW,247,14.0,22.0,88,0.00,,,0.00,772,Wunderground v.1.15,2013-07-28 23:09:00,
2013-07-28 16:14:00,58.5,55.0,29.87,WSW,251,15.0,23.0,88,0.00,,,0.00,772,Wunderground v.1.15,2013-07-28 23:14:00,
2013-07-28 16:24:00,58.6,55.1,29.87,WSW,237,15.0,15.0,88,0.00,,,0.00,754,Wunderground v.1.15,2013-07-28 23:24:00,
2013-07-28 16:34:00,58.7,55.2,29.87,SW,218,15.0,17.0,88,0.00,,,0.00,738,Wunderground v.1.15,2013-07-28 23:34:00,
2013-07-28 16:39:00,59.0,55.4,29.87,SSW,213,14.0,14.0,88,0.00,,,0.00,798,Wunderground v.1.15,2013-07-28 23:39:00,
2013-07-28 16:44:00,59.3,55.7,29.86,WSW,255,13.0,14.0,88,0.00,,,0.00,698,Wunderground v.1.15,2013-07-28 23:44:00,
2013-07-28 16:54:00,59.0,55.4,29.86,SSW,213,13.0,14.0,88,0.00,,,0.00,770,Wunderground v.1.15,2013-07-28 23:54:00,
2013-07-28 16:59:00,59.1,55.5,29.86,SW,218,12.0,14.0,88,0.00,,,0.00,687,Wunderground v.1.15,2013-07-28 23:59:00,
2013-07-28 17:09:00,58.5,55.0,29.86,WSW,237,14.0,19.0,88,0.00,,,0.00,650,Wunderground v.1.15,2013-07-29 00:09:00,
2013-07-28 17:14:00,58.2,54.7,29.86,WSW,240,15.0,19.0,88,0.00,,,0.00,675,Wunderground v.1.15,2013-07-29 00:14:00,
2013-07-28 17:19:00,58.5,55.3,29.86,SW,218,15.0,20.0,89,0.00,,,0.00,362,Wunderground v.1.15,2013-07-29 00:19:00,
2013-07-28 17:29:00,58.6,55.1,29.86,SW,233,13.0,17.0,88,0.00,,,0.00,591,Wunderground v.1.15,2013-07-29 00:29:00,
2013-07-28 17:34:00,58.4,55.2,29.86,WSW,252,13.0,17.0,89,0.00,,,0.00,559,Wunderground v.1.15,2013-07-29 00:34:00,
2013-07-28 17:44:00,58.2,54.7,29.86,SW,224,13.0,13.0,88,0.00,,,0.00,533,Wunderground v.1.15,2013-07-29 00:44:00,
2013-07-28 17:49:00,58.1,54.6,29.86,SSW,213,13.0,19.0,88,0.00,,,0.00,429,Wunderground v.1.15,2013-07-29 00:49:00,
2013-07-28 17:59:00,57.7,54.2,29.86,SW,227,14.0,14.0,88,0.00,,,0.00,216,Wunderground v.1.15,2013-07-29 00:59:00,
2013-07-28 18:04:00,57.4,54.2,29.86,West,266,14.0,14.0,89,0.00,,,0.00,218,Wunderground v.1.15,2013-07-29 01:04:00,
2013-07-28 18:09:00,57.2,54.0,29.86,West,264,14.0,14.0,89,0.00,,,0.00,156,Wunderground v.1.15,2013-07-29 01:09:00,
2013-07-28 18:19:00,56.9,54.0,29.86,West,259,13.0,13.0,90,0.00,,,0.00,134,Wunderground v.1.15,2013-07-29 01:19:00,
2013-07-28 18:29:00,56.8,53.9,29.86,WSW,248,12.0,12.0,90,0.00,,,0.00,123,Wunderground v.1.15,2013-07-29 01:29:00,
2013-07-28 18:34:00,56.7,54.1,29.86,SW,230,11.0,15.0,91,0.00,,,0.00,123,Wunderground v.1.15,2013-07-29 01:34:00,
2013-07-28 18:44:00,56.4,53.8,29.86,WSW,246,14.0,18.0,91,0.00,,,0.00,109,Wunderground v.1.15,2013-07-29 01:44:00,
2013-07-28 18:49:00,56.3,53.7,29.86,WSW,248,14.0,22.0,91,0.00,,,0.00,111,Wunderground v.1.15,2013-07-29 01:49:00,
2013-07-28 19:04:00,56.2,53.6,29.86,WSW,244,15.0,15.0,91,0.00,,,0.00,83,Wunderground v.1.15,2013-07-29 02:04:00,
2013-07-28 19:14:00,56.1,53.8,29.86,West,265,14.0,19.0,92,0.00,,,0.00,62,Wunderground v.1.15,2013-07-29 02:14:00,
2013-07-28 19:24:00,56.0,53.4,29.86,WSW,256,13.0,16.0,91,0.00,,,0.00,54,Wunderground v.1.15,2013-07-29 02:24:00,
2013-07-28 19:34:00,56.0,53.7,29.86,West,269,13.0,16.0,92,0.00,,,0.00,42,Wunderground v.1.15,2013-07-29 02:34:00,
2013-07-28 19:39:00,56.2,53.9,29.86,West,276,13.0,15.0,92,0.00,,,0.00,33,Wunderground v.1.15,2013-07-29 02:39:00,
2013-07-28 19:44:00,56.0,53.7,29.86,WSW,253,13.0,15.0,92,0.00,,,0.00,25,Wunderground v.1.15,2013-07-29 02:44:00,
2013-07-28 19:49:00,56.0,53.7,29.86,WSW,251,14.0,16.0,92,0.00,,,0.00,19,Wunderground v.1.15,2013-07-29 02:49:00,
2013-07-28 19:59:00,56.0,54.0,29.86,WSW,251,16.0,16.0,93,0.00,,,0.00,14,Wunderground v.1.15,2013-07-29 02:59:00,
2013-07-28 20:04:00,55.7,53.7,29.86,WSW,256,16.0,16.0,93,0.00,,,0.00,7,Wunderground v.1.15,2013-07-29 03:04:00,
2013-07-28 20:14:00,55.7,53.7,29.86,WSW,253,16.0,19.0,93,0.00,,,0.00,0,Wunderground v.1.15,2013-07-29 03:14:00,
2013-07-28 20:24:00,55.6,53.6,29.86,SW,222,17.0,22.0,93,0.00,,,0.00,0,Wunderground v.1.15,2013-07-29 03:24:00,
2013-07-28 20:34:00,55.7,53.7,29.86,SW,234,17.0,21.0,93,0.00,,,0.00,0,Wunderground v.1.15,2013-07-29 03:34:00,
2013-07-28 20:44:00,55.6,53.9,29.86,WSW,239,16.0,18.0,94,0.00,,,0.00,0,Wunderground v.1.15,2013-07-29 03:44:00,
2013-07-28 20:54:00,55.3,53.3,29.86,West,263,18.0,18.0,93,0.00,,,0.00,0,Wunderground v.1.15,2013-07-29 03:54:00,
2013-07-28 20:59:00,55.4,53.7,29.86,WSW,258,18.0,18.0,94,0.00,,,0.00,0,Wunderground v.1.15,2013-07-29 03:59:00,
2013-07-28 21:04:00,55.6,53.9,29.86,WSW,251,17.0,18.0,94,0.00,,,0.00,0,Wunderground v.1.15,2013-07-29 04:04:00,
2013-07-28 21:09:00,55.7,54.0,29.86,West,259,16.0,17.0,94,0.00,,,0.00,0,Wunderground v.1.15,2013-07-29 04:09:00,
2013-07-28 21:14:00,55.6,53.6,29.86,West,262,16.0,17.0,93,0.00,,,0.00,0,Wunderground v.1.15,2013-07-29 04:14:00,
2013-07-28 21:19:00,55.5,53.8,29.86,WSW,258,17.0,17.0,94,0.00,,,0.00,0,Wunderground v.1.15,2013-07-29 04:19:00,
2013-07-28 21:24:00,55.5,53.8,29.86,WSW,257,18.0,18.0,94,0.00,,,0.00,0,Wunderground v.1.15,2013-07-29 04:24:00,
2013-07-28 21:29:00,55.6,53.9,29.86,SW,222,17.0,17.0,94,0.00,,,0.00,0,Wunderground v.1.15,2013-07-29 04:29:00,
2013-07-28 21:34:00,55.5,53.8,29.87,West,273,17.0,17.0,94,0.00,,,0.00,0,Wunderground v.1.15,2013-07-29 04:34:00,
2013-07-28 21:44:00,55.2,53.5,29.87,West,270,18.0,23.0,94,0.00,,,0.00,0,Wunderground v.1.15,2013-07-29 04:44:00,
2013-07-28 21:49:00,55.1,53.4,29.87,SW,232,18.0,18.0,94,0.00,,,0.00,0,Wunderground v.1.15,2013-07-29 04:49:00,
2013-07-28 21:54:00,55.1,53.4,29.87,West,260,17.0,21.0,94,0.00,,,0.00,0,Wunderground v.1.15,2013-07-29 04:54:00,
2013-07-28 21:59:00,55.0,53.3,29.87,West,268,17.0,20.0,94,0.00,,,0.00,0,Wunderground v.1.15,2013-07-29 04:59:00,
2013-07-28 22:04:00,55.0,53.3,29.87,West,269,16.0,20.0,94,0.00,,,0.00,0,Wunderground v.1.15,2013-07-29 05:04:00,
2013-07-28 22:09:00,55.1,53.4,29.87,WSW,237,16.0,17.0,94,0.00,,,0.00,0,Wunderground v.1.15,2013-07-29 05:09:00,
2013-07-28 22:19:00,55.2,53.5,29.88,West,272,17.0,17.0,94,0.00,,,0.00,0,Wunderground v.1.15,2013-07-29 05:19:00,
2013-07-28 22:24:00,55.3,53.6,29.88,West,269,17.0,18.0,94,0.00,,,0.00,0,Wunderground v.1.15,2013-07-29 05:24:00,
2013-07-28 22:34:00,55.3,53.6,29.88,WSW,256,17.0,21.0,94,0.00,,,0.00,0,Wunderground v.1.15,2013-07-29 05:34:00,
2013-07-28 22:44:00,55.4,53.7,29.87,West,264,16.0,20.0,94,0.00,,,0.00,0,Wunderground v.1.15,2013-07-29 05:44:00,
2013-07-28 22:49:00,55.5,53.8,29.88,West,259,16.0,16.0,94,0.00,,,0.00,0,Wunderground v.1.15,2013-07-29 05:49:00,
2013-07-28 22:54:00,55.6,54.2,29.88,SW,227,18.0,20.0,95,0.00,,,0.00,0,Wunderground v.1.15,2013-07-29 05:54:00,
2013-07-28 23:04:00,55.6,53.9,29.88,West,260,18.0,18.0,94,0.00,,,0.00,0,Wunderground v.1.15,2013-07-29 06:04:00,
2013-07-28 23:09:00,55.4,53.7,29.88,West,264,19.0,19.0,94,0.00,,,0.00,0,Wunderground v.1.15,2013-07-29 06:09:00,
2013-07-28 23:19:00,55.7,54.0,29.88,West,268,17.0,17.0,94,0.00,,,0.00,0,Wunderground v.1.15,2013-07-29 06:19:00,
2013-07-28 23:24:00,55.6,53.9,29.88,West,264,18.0,21.0,94,0.00,,,0.00,0,Wunderground v.1.15,2013-07-29 06:24:00,
2013-07-28 23:34:00,55.7,54.0,29.88,West,263,17.0,18.0,94,0.00,,,0.00,0,Wunderground v.1.15,2013-07-29 06:34:00,
2013-07-28 23:39:00,55.7,54.0,29.88,WSW,245,17.0,23.0,94,0.00,,,0.00,0,Wunderground v.1.15,2013-07-29 06:39:00,
2013-07-28 23:49:00,56.0,54.3,29.88,WSW,257,17.0,19.0,94,0.00,,,0.00,0,Wunderground v.1.15,2013-07-29 06:49:00,
2013-07-28 23:54:00,55.7,53.7,29.88,WSW,251,17.0,19.0,93,0.00,,,0.00,0,Wunderground v.1.15,2013-07-29 06:54:00,